sensor_id;sensor_type;location;lat;lon;timestamp;P1;durP1;ratioP1;P2;durP2;ratioP2
75171;SDS011;63750;52.418;20.742;2022-12-07T00:00:14;38.30;;;31.00;;
75171;SDS011;63750;52.418;20.742;2022-12-07T00:02:43;39.00;;;31.20;;
75171;SDS011;63750;52.418;20.742;2022-12-07T00:05:12;35.80;;;28.60;;
75171;SDS011;63750;52.418;20.742;2022-12-07T00:07:40;32.80;;;27.90;;
75171;SDS011;63750;52.418;20.742;2022-12-07T00:10:09;29.10;;;25.20;;
75171;SDS011;63750;52.418;20.742;2022-12-07T00:12:37;31.80;;;26.10;;
75171;SDS011;63750;52.418;20.742;2022-12-07T00:15:07;26.70;;;22.80;;
75171;SDS011;63750;52.418;20.742;2022-12-07T00:17:36;26.60;;;22.50;;
75171;SDS011;63750;52.418;20.742;2022-12-07T00:20:06;25.90;;;22.10;;
75171;SDS011;63750;52.418;20.742;2022-12-07T00:22:35;24.50;;;21.20;;
75171;SDS011;63750;52.418;20.742;2022-12-07T00:25:04;26.10;;;21.40;;
75171;SDS011;63750;52.418;20.742;2022-12-07T00:27:33;24.50;;;20.80;;
75171;SDS011;63750;52.418;20.742;2022-12-07T00:30:02;26.80;;;21.40;;
75171;SDS011;63750;52.418;20.742;2022-12-07T00:32:32;23.50;;;19.90;;
75171;SDS011;63750;52.418;20.742;2022-12-07T00:35:00;29.30;;;22.30;;
75171;SDS011;63750;52.418;20.742;2022-12-07T00:37:28;25.20;;;20.40;;
75171;SDS011;63750;52.418;20.742;2022-12-07T00:39:57;26.70;;;21.60;;
75171;SDS011;63750;52.418;20.742;2022-12-07T00:42:25;31.10;;;23.80;;
75171;SDS011;63750;52.418;20.742;2022-12-07T00:44:53;31.90;;;23.80;;
75171;SDS011;63750;52.418;20.742;2022-12-07T00:47:22;28.60;;;21.50;;
75171;SDS011;63750;52.418;20.742;2022-12-07T00:49:50;26.40;;;21.30;;
75171;SDS011;63750;52.418;20.742;2022-12-07T00:52:19;28.50;;;21.80;;
75171;SDS011;63750;52.418;20.742;2022-12-07T00:54:48;29.20;;;22.30;;
75171;SDS011;63750;52.418;20.742;2022-12-07T00:57:16;27.10;;;20.90;;
75171;SDS011;63750;52.418;20.742;2022-12-07T00:59:45;28.90;;;20.90;;
75171;SDS011;63750;52.418;20.742;2022-12-07T01:02:17;31.00;;;23.00;;
75171;SDS011;63750;52.418;20.742;2022-12-07T01:04:45;28.70;;;22.90;;
75171;SDS011;63750;52.418;20.742;2022-12-07T01:07:15;26.50;;;22.10;;
75171;SDS011;63750;52.418;20.742;2022-12-07T01:09:44;27.30;;;22.10;;
75171;SDS011;63750;52.418;20.742;2022-12-07T01:12:12;28.60;;;22.60;;
75171;SDS011;63750;52.418;20.742;2022-12-07T01:14:41;26.10;;;21.70;;
75171;SDS011;63750;52.418;20.742;2022-12-07T01:17:09;28.40;;;22.20;;
75171;SDS011;63750;52.418;20.742;2022-12-07T01:19:39;28.00;;;21.80;;
75171;SDS011;63750;52.418;20.742;2022-12-07T01:22:09;29.60;;;22.80;;
75171;SDS011;63750;52.418;20.742;2022-12-07T01:24:39;28.00;;;22.30;;
75171;SDS011;63750;52.418;20.742;2022-12-07T01:27:08;28.80;;;22.90;;
75171;SDS011;63750;52.418;20.742;2022-12-07T01:29:37;29.60;;;22.70;;
75171;SDS011;63750;52.418;20.742;2022-12-07T01:32:07;30.00;;;23.00;;
75171;SDS011;63750;52.418;20.742;2022-12-07T01:34:37;29.70;;;22.50;;
75171;SDS011;63750;52.418;20.742;2022-12-07T01:37:07;30.30;;;23.10;;
75171;SDS011;63750;52.418;20.742;2022-12-07T01:39:37;28.70;;;23.20;;
75171;SDS011;63750;52.418;20.742;2022-12-07T01:42:07;28.10;;;23.40;;
75171;SDS011;63750;52.418;20.742;2022-12-07T01:47:37;27.70;;;22.80;;
75171;SDS011;63750;52.418;20.742;2022-12-07T01:50:07;28.70;;;23.00;;
75171;SDS011;63750;52.418;20.742;2022-12-07T01:52:36;31.00;;;23.70;;
75171;SDS011;63750;52.418;20.742;2022-12-07T01:55:09;32.80;;;25.80;;
75171;SDS011;63750;52.418;20.742;2022-12-07T01:57:41;31.10;;;24.40;;
75171;SDS011;63750;52.418;20.742;2022-12-07T02:00:14;33.80;;;25.30;;
75171;SDS011;63750;52.418;20.742;2022-12-07T02:02:45;31.60;;;25.50;;
75171;SDS011;63750;52.418;20.742;2022-12-07T02:05:18;28.90;;;23.80;;
75171;SDS011;63750;52.418;20.742;2022-12-07T02:07:48;29.20;;;24.20;;
75171;SDS011;63750;52.418;20.742;2022-12-07T02:10:20;29.80;;;24.10;;
75171;SDS011;63750;52.418;20.742;2022-12-07T02:12:54;30.40;;;24.20;;
75171;SDS011;63750;52.418;20.742;2022-12-07T02:15:26;30.00;;;24.20;;
75171;SDS011;63750;52.418;20.742;2022-12-07T02:18:07;27.30;;;23.70;;
75171;SDS011;63750;52.418;20.742;2022-12-07T02:20:43;30.30;;;25.20;;
75171;SDS011;63750;52.418;20.742;2022-12-07T02:29:32;31.60;;;26.00;;
75171;SDS011;63750;52.418;20.742;2022-12-07T02:32:06;26.70;;;23.30;;
75171;SDS011;63750;52.418;20.742;2022-12-07T02:34:42;23.80;;;20.80;;
75171;SDS011;63750;52.418;20.742;2022-12-07T02:37:17;21.80;;;18.50;;
75171;SDS011;63750;52.418;20.742;2022-12-07T02:39:55;19.70;;;17.50;;
75171;SDS011;63750;52.418;20.742;2022-12-07T02:42:28;19.40;;;17.30;;
75171;SDS011;63750;52.418;20.742;2022-12-07T02:45:01;18.40;;;16.00;;
75171;SDS011;63750;52.418;20.742;2022-12-07T02:47:33;17.50;;;15.30;;
75171;SDS011;63750;52.418;20.742;2022-12-07T02:50:04;18.00;;;16.20;;
75171;SDS011;63750;52.418;20.742;2022-12-07T02:52:34;18.40;;;15.70;;
75171;SDS011;63750;52.418;20.742;2022-12-07T02:55:02;16.30;;;14.60;;
75171;SDS011;63750;52.418;20.742;2022-12-07T02:57:40;16.30;;;14.60;;
75171;SDS011;63750;52.418;20.742;2022-12-07T03:00:20;18.70;;;15.40;;
75171;SDS011;63750;52.418;20.742;2022-12-07T03:02:54;16.40;;;14.30;;
75171;SDS011;63750;52.418;20.742;2022-12-07T03:05:31;17.40;;;15.20;;
75171;SDS011;63750;52.418;20.742;2022-12-07T03:08:13;17.50;;;14.20;;
75171;SDS011;63750;52.418;20.742;2022-12-07T03:10:48;18.40;;;15.20;;
75171;SDS011;63750;52.418;20.742;2022-12-07T03:13:23;17.60;;;15.30;;
75171;SDS011;63750;52.418;20.742;2022-12-07T03:15:58;16.20;;;14.40;;
75171;SDS011;63750;52.418;20.742;2022-12-07T03:18:35;20.50;;;16.00;;
75171;SDS011;63750;52.418;20.742;2022-12-07T03:21:08;18.20;;;15.50;;
75171;SDS011;63750;52.418;20.742;2022-12-07T03:23:40;19.10;;;15.00;;
75171;SDS011;63750;52.418;20.742;2022-12-07T03:26:12;17.50;;;15.60;;
75171;SDS011;63750;52.418;20.742;2022-12-07T03:28:45;19.60;;;15.80;;
75171;SDS011;63750;52.418;20.742;2022-12-07T03:31:18;17.40;;;15.60;;
75171;SDS011;63750;52.418;20.742;2022-12-07T03:33:49;18.40;;;16.50;;
75171;SDS011;63750;52.418;20.742;2022-12-07T03:36:28;22.30;;;18.70;;
75171;SDS011;63750;52.418;20.742;2022-12-07T03:39:02;17.90;;;16.00;;
75171;SDS011;63750;52.418;20.742;2022-12-07T03:41:39;18.30;;;16.30;;
75171;SDS011;63750;52.418;20.742;2022-12-07T03:44:08;18.60;;;16.50;;
75171;SDS011;63750;52.418;20.742;2022-12-07T03:46:40;21.70;;;17.90;;
75171;SDS011;63750;52.418;20.742;2022-12-07T03:49:13;19.30;;;16.30;;
75171;SDS011;63750;52.418;20.742;2022-12-07T03:51:50;19.90;;;17.70;;
75171;SDS011;63750;52.418;20.742;2022-12-07T03:54:23;19.40;;;17.30;;
75171;SDS011;63750;52.418;20.742;2022-12-07T03:56:57;20.70;;;17.60;;
75171;SDS011;63750;52.418;20.742;2022-12-07T03:59:28;17.00;;;14.60;;
75171;SDS011;63750;52.418;20.742;2022-12-07T04:02:01;16.30;;;14.70;;
75171;SDS011;63750;52.418;20.742;2022-12-07T04:04:32;15.60;;;13.90;;
75171;SDS011;63750;52.418;20.742;2022-12-07T04:07:01;16.60;;;13.30;;
75171;SDS011;63750;52.418;20.742;2022-12-07T04:09:30;15.20;;;13.60;;
75171;SDS011;63750;52.418;20.742;2022-12-07T04:11:58;14.40;;;12.90;;
75171;SDS011;63750;52.418;20.742;2022-12-07T04:14:27;15.10;;;12.70;;
75171;SDS011;63750;52.418;20.742;2022-12-07T04:16:56;13.80;;;12.40;;
75171;SDS011;63750;52.418;20.742;2022-12-07T04:19:26;14.20;;;12.70;;
75171;SDS011;63750;52.418;20.742;2022-12-07T04:21:56;14.60;;;13.00;;
75171;SDS011;63750;52.418;20.742;2022-12-07T04:24:25;15.80;;;13.30;;
75171;SDS011;63750;52.418;20.742;2022-12-07T04:26:55;15.80;;;13.70;;
75171;SDS011;63750;52.418;20.742;2022-12-07T04:29:24;14.00;;;12.60;;
75171;SDS011;63750;52.418;20.742;2022-12-07T04:31:52;14.90;;;13.30;;
75171;SDS011;63750;52.418;20.742;2022-12-07T04:34:21;15.30;;;13.70;;
75171;SDS011;63750;52.418;20.742;2022-12-07T04:36:50;15.20;;;13.30;;
75171;SDS011;63750;52.418;20.742;2022-12-07T04:39:19;15.30;;;13.70;;
75171;SDS011;63750;52.418;20.742;2022-12-07T04:41:49;14.50;;;13.00;;
75171;SDS011;63750;52.418;20.742;2022-12-07T04:44:19;15.20;;;13.20;;
75171;SDS011;63750;52.418;20.742;2022-12-07T04:46:48;15.90;;;13.10;;
75171;SDS011;63750;52.418;20.742;2022-12-07T04:49:17;14.90;;;13.00;;
75171;SDS011;63750;52.418;20.742;2022-12-07T04:51:46;13.10;;;11.40;;
75171;SDS011;63750;52.418;20.742;2022-12-07T04:54:15;13.00;;;11.70;;
75171;SDS011;63750;52.418;20.742;2022-12-07T04:56:44;12.90;;;11.10;;
75171;SDS011;63750;52.418;20.742;2022-12-07T04:59:13;12.80;;;10.40;;
75171;SDS011;63750;52.418;20.742;2022-12-07T05:01:42;12.40;;;11.10;;
75171;SDS011;63750;52.418;20.742;2022-12-07T05:04:11;11.70;;;10.50;;
75171;SDS011;63750;52.418;20.742;2022-12-07T05:06:39;11.80;;;10.60;;
75171;SDS011;63750;52.418;20.742;2022-12-07T05:09:08;11.30;;;10.10;;
75171;SDS011;63750;52.418;20.742;2022-12-07T05:11:36;11.30;;;10.20;;
75171;SDS011;63750;52.418;20.742;2022-12-07T05:14:05;11.30;;;10.10;;
75171;SDS011;63750;52.418;20.742;2022-12-07T05:16:36;11.80;;;10.60;;
75171;SDS011;63750;52.418;20.742;2022-12-07T05:19:05;11.20;;;10.00;;
75171;SDS011;63750;52.418;20.742;2022-12-07T05:21:35;12.20;;;10.30;;
75171;SDS011;63750;52.418;20.742;2022-12-07T05:24:05;11.40;;;10.20;;
75171;SDS011;63750;52.418;20.742;2022-12-07T05:26:35;12.10;;;10.60;;
75171;SDS011;63750;52.418;20.742;2022-12-07T05:29:03;12.90;;;10.80;;
75171;SDS011;63750;52.418;20.742;2022-12-07T05:31:31;11.70;;;10.50;;
75171;SDS011;63750;52.418;20.742;2022-12-07T05:34:00;11.60;;;10.40;;
75171;SDS011;63750;52.418;20.742;2022-12-07T05:36:28;12.80;;;11.30;;
75171;SDS011;63750;52.418;20.742;2022-12-07T05:39:00;12.00;;;10.80;;
75171;SDS011;63750;52.418;20.742;2022-12-07T05:41:28;12.30;;;10.60;;
75171;SDS011;63750;52.418;20.742;2022-12-07T05:43:57;12.20;;;10.40;;
75171;SDS011;63750;52.418;20.742;2022-12-07T05:46:26;11.30;;;10.20;;
75171;SDS011;63750;52.418;20.742;2022-12-07T05:48:55;12.00;;;10.20;;
75171;SDS011;63750;52.418;20.742;2022-12-07T05:51:24;12.70;;;10.20;;
75171;SDS011;63750;52.418;20.742;2022-12-07T05:53:54;12.70;;;10.50;;
75171;SDS011;63750;52.418;20.742;2022-12-07T05:56:24;11.90;;;10.50;;
75171;SDS011;63750;52.418;20.742;2022-12-07T05:58:53;12.20;;;10.50;;
75171;SDS011;63750;52.418;20.742;2022-12-07T06:01:21;11.30;;;10.10;;
75171;SDS011;63750;52.418;20.742;2022-12-07T06:03:50;11.00;;;9.90;;
75171;SDS011;63750;52.418;20.742;2022-12-07T06:06:20;11.40;;;10.10;;
75171;SDS011;63750;52.418;20.742;2022-12-07T06:08:49;12.70;;;10.90;;
75171;SDS011;63750;52.418;20.742;2022-12-07T06:11:19;12.30;;;11.00;;
75171;SDS011;63750;52.418;20.742;2022-12-07T06:13:49;12.90;;;11.50;;
75171;SDS011;63750;52.418;20.742;2022-12-07T06:16:20;12.70;;;11.40;;
75171;SDS011;63750;52.418;20.742;2022-12-07T06:18:50;13.40;;;12.00;;
75171;SDS011;63750;52.418;20.742;2022-12-07T06:21:20;13.10;;;11.80;;
75171;SDS011;63750;52.418;20.742;2022-12-07T06:23:49;13.60;;;11.70;;
75171;SDS011;63750;52.418;20.742;2022-12-07T06:26:18;14.60;;;12.70;;
75171;SDS011;63750;52.418;20.742;2022-12-07T06:28:47;14.20;;;12.60;;
75171;SDS011;63750;52.418;20.742;2022-12-07T06:31:16;14.80;;;13.00;;
75171;SDS011;63750;52.418;20.742;2022-12-07T06:33:45;15.80;;;14.10;;
75171;SDS011;63750;52.418;20.742;2022-12-07T06:36:14;16.60;;;14.70;;
75171;SDS011;63750;52.418;20.742;2022-12-07T06:38:42;17.50;;;14.70;;
75171;SDS011;63750;52.418;20.742;2022-12-07T06:41:10;17.20;;;14.60;;
75171;SDS011;63750;52.418;20.742;2022-12-07T06:43:39;17.80;;;15.40;;
75171;SDS011;63750;52.418;20.742;2022-12-07T06:46:07;18.50;;;14.70;;
75171;SDS011;63750;52.418;20.742;2022-12-07T06:48:36;17.70;;;15.00;;
75171;SDS011;63750;52.418;20.742;2022-12-07T06:51:04;18.50;;;16.10;;
75171;SDS011;63750;52.418;20.742;2022-12-07T06:53:33;21.10;;;16.60;;
75171;SDS011;63750;52.418;20.742;2022-12-07T06:56:04;17.80;;;15.90;;
75171;SDS011;63750;52.418;20.742;2022-12-07T06:58:34;18.30;;;15.80;;
75171;SDS011;63750;52.418;20.742;2022-12-07T07:01:02;19.00;;;16.30;;
75171;SDS011;63750;52.418;20.742;2022-12-07T07:03:34;18.10;;;15.40;;
75171;SDS011;63750;52.418;20.742;2022-12-07T07:06:03;17.60;;;15.50;;
75171;SDS011;63750;52.418;20.742;2022-12-07T07:08:33;16.40;;;14.60;;
75171;SDS011;63750;52.418;20.742;2022-12-07T07:11:02;18.60;;;14.50;;
75171;SDS011;63750;52.418;20.742;2022-12-07T07:13:32;18.10;;;14.90;;
75171;SDS011;63750;52.418;20.742;2022-12-07T07:16:02;17.80;;;15.00;;
75171;SDS011;63750;52.418;20.742;2022-12-07T07:18:32;15.60;;;13.70;;
75171;SDS011;63750;52.418;20.742;2022-12-07T07:21:02;16.00;;;14.10;;
75171;SDS011;63750;52.418;20.742;2022-12-07T07:23:32;15.80;;;13.10;;
75171;SDS011;63750;52.418;20.742;2022-12-07T07:26:01;15.10;;;12.90;;
75171;SDS011;63750;52.418;20.742;2022-12-07T07:28:32;15.50;;;12.60;;
75171;SDS011;63750;52.418;20.742;2022-12-07T07:31:04;13.30;;;11.90;;
75171;SDS011;63750;52.418;20.742;2022-12-07T07:33:33;14.10;;;12.60;;
75171;SDS011;63750;52.418;20.742;2022-12-07T07:36:02;14.30;;;12.30;;
75171;SDS011;63750;52.418;20.742;2022-12-07T07:38:33;13.50;;;12.00;;
75171;SDS011;63750;52.418;20.742;2022-12-07T07:41:02;14.00;;;12.20;;
75171;SDS011;63750;52.418;20.742;2022-12-07T07:43:30;12.70;;;11.00;;
75171;SDS011;63750;52.418;20.742;2022-12-07T07:46:00;13.10;;;11.80;;
75171;SDS011;63750;52.418;20.742;2022-12-07T07:48:28;13.00;;;11.70;;
75171;SDS011;63750;52.418;20.742;2022-12-07T07:50:57;16.40;;;12.30;;
75171;SDS011;63750;52.418;20.742;2022-12-07T07:53:27;12.90;;;11.50;;
75171;SDS011;63750;52.418;20.742;2022-12-07T07:55:56;13.40;;;12.00;;
75171;SDS011;63750;52.418;20.742;2022-12-07T07:58:25;14.50;;;12.20;;
75171;SDS011;63750;52.418;20.742;2022-12-07T08:00:53;13.90;;;12.20;;
75171;SDS011;63750;52.418;20.742;2022-12-07T08:03:21;14.30;;;12.50;;
75171;SDS011;63750;52.418;20.742;2022-12-07T08:05:50;15.20;;;12.20;;
75171;SDS011;63750;52.418;20.742;2022-12-07T08:08:19;15.00;;;13.00;;
75171;SDS011;63750;52.418;20.742;2022-12-07T08:10:49;14.40;;;12.90;;
75171;SDS011;63750;52.418;20.742;2022-12-07T08:13:18;14.80;;;12.90;;
75171;SDS011;63750;52.418;20.742;2022-12-07T08:15:49;16.80;;;12.60;;
75171;SDS011;63750;52.418;20.742;2022-12-07T08:18:18;15.60;;;13.20;;
75171;SDS011;63750;52.418;20.742;2022-12-07T08:20:48;19.20;;;13.50;;
75171;SDS011;63750;52.418;20.742;2022-12-07T08:23:18;16.70;;;12.80;;
75171;SDS011;63750;52.418;20.742;2022-12-07T08:25:47;17.80;;;13.60;;
75171;SDS011;63750;52.418;20.742;2022-12-07T08:28:15;16.90;;;13.10;;
75171;SDS011;63750;52.418;20.742;2022-12-07T08:30:44;16.10;;;13.10;;
75171;SDS011;63750;52.418;20.742;2022-12-07T08:33:14;17.00;;;13.30;;
75171;SDS011;63750;52.418;20.742;2022-12-07T08:35:44;18.40;;;14.00;;
75171;SDS011;63750;52.418;20.742;2022-12-07T08:38:16;18.40;;;14.10;;
75171;SDS011;63750;52.418;20.742;2022-12-07T08:40:44;18.00;;;14.00;;
75171;SDS011;63750;52.418;20.742;2022-12-07T08:43:20;18.90;;;13.60;;
75171;SDS011;63750;52.418;20.742;2022-12-07T08:45:51;17.30;;;14.80;;
75171;SDS011;63750;52.418;20.742;2022-12-07T08:48:32;18.60;;;14.80;;
75171;SDS011;63750;52.418;20.742;2022-12-07T08:51:04;17.50;;;14.50;;
75171;SDS011;63750;52.418;20.742;2022-12-07T08:53:36;18.90;;;14.80;;
75171;SDS011;63750;52.418;20.742;2022-12-07T08:56:08;19.10;;;15.20;;
75171;SDS011;63750;52.418;20.742;2022-12-07T08:58:39;20.90;;;16.10;;
75171;SDS011;63750;52.418;20.742;2022-12-07T09:01:11;20.70;;;16.30;;
75171;SDS011;63750;52.418;20.742;2022-12-07T09:03:41;25.20;;;16.40;;
75171;SDS011;63750;52.418;20.742;2022-12-07T09:06:11;18.60;;;15.10;;
75171;SDS011;63750;52.418;20.742;2022-12-07T09:08:41;22.40;;;16.80;;
75171;SDS011;63750;52.418;20.742;2022-12-07T09:11:15;20.30;;;16.30;;
75171;SDS011;63750;52.418;20.742;2022-12-07T09:13:44;21.10;;;16.50;;
75171;SDS011;63750;52.418;20.742;2022-12-07T09:16:17;22.10;;;15.40;;
75171;SDS011;63750;52.418;20.742;2022-12-07T09:18:47;19.90;;;15.60;;
75171;SDS011;63750;52.418;20.742;2022-12-07T09:21:16;20.30;;;14.80;;
75171;SDS011;63750;52.418;20.742;2022-12-07T09:23:47;22.80;;;15.90;;
75171;SDS011;63750;52.418;20.742;2022-12-07T09:26:17;20.00;;;15.20;;
75171;SDS011;63750;52.418;20.742;2022-12-07T09:28:47;19.00;;;14.60;;
75171;SDS011;63750;52.418;20.742;2022-12-07T09:31:18;19.20;;;14.20;;
75171;SDS011;63750;52.418;20.742;2022-12-07T09:33:52;20.40;;;14.20;;
75171;SDS011;63750;52.418;20.742;2022-12-07T09:36:25;19.10;;;13.90;;
75171;SDS011;63750;52.418;20.742;2022-12-07T09:38:55;19.00;;;13.30;;
75171;SDS011;63750;52.418;20.742;2022-12-07T09:41:27;19.10;;;13.60;;
75171;SDS011;63750;52.418;20.742;2022-12-07T09:44:02;19.30;;;13.70;;
75171;SDS011;63750;52.418;20.742;2022-12-07T09:46:34;16.90;;;12.50;;
75171;SDS011;63750;52.418;20.742;2022-12-07T09:49:07;20.60;;;13.70;;
75171;SDS011;63750;52.418;20.742;2022-12-07T09:51:43;16.10;;;12.50;;
75171;SDS011;63750;52.418;20.742;2022-12-07T09:54:16;16.40;;;12.50;;
75171;SDS011;63750;52.418;20.742;2022-12-07T09:56:47;17.60;;;12.70;;
75171;SDS011;63750;52.418;20.742;2022-12-07T09:59:18;18.60;;;12.00;;
75171;SDS011;63750;52.418;20.742;2022-12-07T10:01:48;17.80;;;11.90;;
75171;SDS011;63750;52.418;20.742;2022-12-07T10:04:20;17.00;;;11.10;;
75171;SDS011;63750;52.418;20.742;2022-12-07T10:06:53;16.70;;;11.20;;
75171;SDS011;63750;52.418;20.742;2022-12-07T10:09:21;17.50;;;12.40;;
75171;SDS011;63750;52.418;20.742;2022-12-07T10:12:05;18.10;;;12.20;;
75171;SDS011;63750;52.418;20.742;2022-12-07T10:14:36;18.10;;;12.90;;
75171;SDS011;63750;52.418;20.742;2022-12-07T10:20:14;18.20;;;12.50;;
75171;SDS011;63750;52.418;20.742;2022-12-07T10:25:32;17.70;;;12.70;;
75171;SDS011;63750;52.418;20.742;2022-12-07T10:28:09;19.20;;;12.30;;
75171;SDS011;63750;52.418;20.742;2022-12-07T10:30:50;16.70;;;12.30;;
75171;SDS011;63750;52.418;20.742;2022-12-07T10:33:32;17.40;;;12.00;;
75171;SDS011;63750;52.418;20.742;2022-12-07T10:39:02;19.00;;;13.00;;
75171;SDS011;63750;52.418;20.742;2022-12-07T10:41:39;17.80;;;12.40;;
75171;SDS011;63750;52.418;20.742;2022-12-07T10:44:23;17.30;;;12.80;;
75171;SDS011;63750;52.418;20.742;2022-12-07T10:46:57;17.20;;;12.50;;
75171;SDS011;63750;52.418;20.742;2022-12-07T10:49:53;17.10;;;12.80;;
75171;SDS011;63750;52.418;20.742;2022-12-07T10:55:26;18.70;;;12.90;;
75171;SDS011;63750;52.418;20.742;2022-12-07T10:58:12;19.80;;;13.80;;
75171;SDS011;63750;52.418;20.742;2022-12-07T11:00:55;20.40;;;15.00;;
75171;SDS011;63750;52.418;20.742;2022-12-07T11:06:37;19.50;;;14.00;;
75171;SDS011;63750;52.418;20.742;2022-12-07T11:12:13;18.10;;;13.20;;
75171;SDS011;63750;52.418;20.742;2022-12-07T11:14:53;18.70;;;13.00;;
75171;SDS011;63750;52.418;20.742;2022-12-07T11:17:31;17.10;;;13.40;;
75171;SDS011;63750;52.418;20.742;2022-12-07T11:20:05;17.00;;;13.80;;
75171;SDS011;63750;52.418;20.742;2022-12-07T11:22:51;18.60;;;13.90;;
75171;SDS011;63750;52.418;20.742;2022-12-07T11:25:29;17.20;;;14.10;;
75171;SDS011;63750;52.418;20.742;2022-12-07T11:28:11;17.10;;;13.40;;
75171;SDS011;63750;52.418;20.742;2022-12-07T11:30:51;18.80;;;14.20;;
75171;SDS011;63750;52.418;20.742;2022-12-07T11:33:29;18.30;;;14.00;;
75171;SDS011;63750;52.418;20.742;2022-12-07T11:36:09;17.30;;;13.40;;
75171;SDS011;63750;52.418;20.742;2022-12-07T11:38:54;17.00;;;13.70;;
75171;SDS011;63750;52.418;20.742;2022-12-07T11:41:26;16.60;;;14.50;;
75171;SDS011;63750;52.418;20.742;2022-12-07T11:43:59;17.30;;;14.20;;
75171;SDS011;63750;52.418;20.742;2022-12-07T11:46:35;16.60;;;14.80;;
75171;SDS011;63750;52.418;20.742;2022-12-07T11:49:15;18.40;;;14.60;;
75171;SDS011;63750;52.418;20.742;2022-12-07T11:51:51;19.30;;;15.70;;
75171;SDS011;63750;52.418;20.742;2022-12-07T11:54:26;17.80;;;15.40;;
75171;SDS011;63750;52.418;20.742;2022-12-07T11:56:59;18.60;;;15.50;;
75171;SDS011;63750;52.418;20.742;2022-12-07T11:59:40;19.00;;;15.90;;
75171;SDS011;63750;52.418;20.742;2022-12-07T12:02:18;17.80;;;15.80;;
75171;SDS011;63750;52.418;20.742;2022-12-07T12:04:51;18.50;;;15.40;;
75171;SDS011;63750;52.418;20.742;2022-12-07T12:07:25;19.70;;;16.20;;
75171;SDS011;63750;52.418;20.742;2022-12-07T12:09:56;18.90;;;15.70;;
75171;SDS011;63750;52.418;20.742;2022-12-07T12:12:38;17.20;;;14.20;;
75171;SDS011;63750;52.418;20.742;2022-12-07T12:15:26;18.70;;;15.20;;
75171;SDS011;63750;52.418;20.742;2022-12-07T12:18:07;17.70;;;15.20;;
75171;SDS011;63750;52.418;20.742;2022-12-07T12:20:57;18.20;;;14.80;;
75171;SDS011;63750;52.418;20.742;2022-12-07T12:23:34;17.80;;;14.70;;
75171;SDS011;63750;52.418;20.742;2022-12-07T12:26:13;18.20;;;15.30;;
75171;SDS011;63750;52.418;20.742;2022-12-07T12:28:52;16.70;;;14.80;;
75171;SDS011;63750;52.418;20.742;2022-12-07T12:31:33;15.60;;;13.60;;
75171;SDS011;63750;52.418;20.742;2022-12-07T12:36:59;16.60;;;13.60;;
75171;SDS011;63750;52.418;20.742;2022-12-07T12:39:28;15.20;;;13.00;;
75171;SDS011;63750;52.418;20.742;2022-12-07T12:41:58;16.40;;;13.70;;
75171;SDS011;63750;52.418;20.742;2022-12-07T12:47:43;15.50;;;13.60;;
75171;SDS011;63750;52.418;20.742;2022-12-07T12:50:22;16.60;;;14.10;;
75171;SDS011;63750;52.418;20.742;2022-12-07T12:52:54;16.10;;;13.30;;
75171;SDS011;63750;52.418;20.742;2022-12-07T12:58:37;15.20;;;12.70;;
75171;SDS011;63750;52.418;20.742;2022-12-07T13:10:22;14.80;;;12.90;;
75171;SDS011;63750;52.418;20.742;2022-12-07T13:12:59;15.10;;;12.90;;
75171;SDS011;63750;52.418;20.742;2022-12-07T13:15:35;13.70;;;12.30;;
75171;SDS011;63750;52.418;20.742;2022-12-07T13:18:21;14.60;;;12.60;;
75171;SDS011;63750;52.418;20.742;2022-12-07T13:21:01;13.80;;;12.30;;
75171;SDS011;63750;52.418;20.742;2022-12-07T13:23:54;15.20;;;13.20;;
75171;SDS011;63750;52.418;20.742;2022-12-07T13:26:33;14.70;;;12.60;;
75171;SDS011;63750;52.418;20.742;2022-12-07T13:29:09;14.40;;;12.50;;
75171;SDS011;63750;52.418;20.742;2022-12-07T13:31:40;14.30;;;12.10;;
75171;SDS011;63750;52.418;20.742;2022-12-07T13:34:30;17.30;;;13.70;;
75171;SDS011;63750;52.418;20.742;2022-12-07T13:37:01;15.00;;;12.90;;
75171;SDS011;63750;52.418;20.742;2022-12-07T13:39:44;15.50;;;13.60;;
75171;SDS011;63750;52.418;20.742;2022-12-07T13:42:19;17.00;;;13.80;;
75171;SDS011;63750;52.418;20.742;2022-12-07T13:44:52;15.90;;;13.00;;
75171;SDS011;63750;52.418;20.742;2022-12-07T13:47:25;16.40;;;14.10;;
75171;SDS011;63750;52.418;20.742;2022-12-07T13:50:00;16.70;;;13.60;;
75171;SDS011;63750;52.418;20.742;2022-12-07T13:52:47;16.40;;;13.90;;
75171;SDS011;63750;52.418;20.742;2022-12-07T13:55:16;18.80;;;15.20;;
75171;SDS011;63750;52.418;20.742;2022-12-07T13:57:46;19.40;;;15.60;;
75171;SDS011;63750;52.418;20.742;2022-12-07T14:00:16;19.30;;;15.50;;
75171;SDS011;63750;52.418;20.742;2022-12-07T14:02:57;19.70;;;16.70;;
75171;SDS011;63750;52.418;20.742;2022-12-07T14:05:28;18.90;;;16.70;;
75171;SDS011;63750;52.418;20.742;2022-12-07T14:08:00;21.60;;;16.50;;
75171;SDS011;63750;52.418;20.742;2022-12-07T14:10:31;18.20;;;16.30;;
75171;SDS011;63750;52.418;20.742;2022-12-07T14:15:55;18.40;;;15.90;;
75171;SDS011;63750;52.418;20.742;2022-12-07T14:18:28;18.80;;;16.80;;
75171;SDS011;63750;52.418;20.742;2022-12-07T14:21:04;18.90;;;16.70;;
75171;SDS011;63750;52.418;20.742;2022-12-07T14:23:41;20.90;;;17.50;;
75171;SDS011;63750;52.418;20.742;2022-12-07T14:26:13;21.20;;;18.10;;
75171;SDS011;63750;52.418;20.742;2022-12-07T14:28:46;19.90;;;16.20;;
75171;SDS011;63750;52.418;20.742;2022-12-07T14:31:16;19.40;;;17.00;;
75171;SDS011;63750;52.418;20.742;2022-12-07T14:33:47;18.80;;;16.40;;
75171;SDS011;63750;52.418;20.742;2022-12-07T14:36:16;19.80;;;16.80;;
75171;SDS011;63750;52.418;20.742;2022-12-07T14:38:45;18.80;;;16.40;;
75171;SDS011;63750;52.418;20.742;2022-12-07T14:41:16;19.50;;;16.80;;
75171;SDS011;63750;52.418;20.742;2022-12-07T14:43:49;20.00;;;17.30;;
75171;SDS011;63750;52.418;20.742;2022-12-07T14:46:17;20.10;;;17.60;;
75171;SDS011;63750;52.418;20.742;2022-12-07T14:48:47;20.30;;;17.20;;
75171;SDS011;63750;52.418;20.742;2022-12-07T14:51:16;20.70;;;17.20;;
75171;SDS011;63750;52.418;20.742;2022-12-07T14:53:46;19.90;;;17.70;;
75171;SDS011;63750;52.418;20.742;2022-12-07T14:56:18;20.00;;;16.90;;
75171;SDS011;63750;52.418;20.742;2022-12-07T14:58:47;22.00;;;18.10;;
75171;SDS011;63750;52.418;20.742;2022-12-07T15:01:15;20.90;;;18.50;;
75171;SDS011;63750;52.418;20.742;2022-12-07T15:03:44;21.80;;;17.80;;
75171;SDS011;63750;52.418;20.742;2022-12-07T15:06:14;21.50;;;18.50;;
75171;SDS011;63750;52.418;20.742;2022-12-07T15:08:44;23.20;;;19.00;;
75171;SDS011;63750;52.418;20.742;2022-12-07T15:11:15;24.50;;;19.40;;
75171;SDS011;63750;52.418;20.742;2022-12-07T15:13:44;22.40;;;19.10;;
75171;SDS011;63750;52.418;20.742;2022-12-07T15:16:16;21.50;;;17.80;;
75171;SDS011;63750;52.418;20.742;2022-12-07T15:18:49;18.30;;;16.30;;
75171;SDS011;63750;52.418;20.742;2022-12-07T15:21:18;21.50;;;18.00;;
75171;SDS011;63750;52.418;20.742;2022-12-07T15:23:47;21.10;;;17.20;;